sensor_id;sensor_type;location;lat;lon;timestamp;pressure;altitude;pressure_sealevel;temperature;humidity
35649;BME280;21768;48.562;13.414;2023-10-19T00:01:13;96040.34;;;10.56;69.90
35649;BME280;21768;48.562;13.414;2023-10-19T00:03:41;96026.28;;;10.61;69.69
35649;BME280;21768;48.562;13.414;2023-10-19T00:06:06;96029.47;;;10.57;70.01
35649;BME280;21768;48.562;13.414;2023-10-19T00:08:31;96035.38;;;10.57;70.06
35649;BME280;21768;48.562;13.414;2023-10-19T00:11:06;96027.81;;;10.57;70.25
35649;BME280;21768;48.562;13.414;2023-10-19T00:13:39;96021.97;;;10.59;70.15
35649;BME280;21768;48.562;13.414;2023-10-19T00:16:06;96027.94;;;10.61;70.27
35649;BME280;21768;48.562;13.414;2023-10-19T00:18:57;96023.03;;;10.64;70.14
35649;BME280;21768;48.562;13.414;2023-10-19T00:21:26;96008.72;;;10.64;70.19
35649;BME280;21768;48.562;13.414;2023-10-19T00:23:56;96021.53;;;10.69;70.10
35649;BME280;21768;48.562;13.414;2023-10-19T00:26:23;96011.56;;;10.72;70.00
35649;BME280;21768;48.562;13.414;2023-10-19T00:28:52;96011.56;;;10.72;70.22
35649;BME280;21768;48.562;13.414;2023-10-19T00:31:24;96020.00;;;10.72;70.03
35649;BME280;21768;48.562;13.414;2023-10-19T00:33:51;96004.06;;;10.73;70.01
35649;BME280;21768;48.562;13.414;2023-10-19T00:36:20;95999.16;;;10.76;70.24
35649;BME280;21768;48.562;13.414;2023-10-19T00:38:46;95994.19;;;10.78;69.97
35649;BME280;21768;48.562;13.414;2023-10-19T00:41:16;95990.91;;;10.80;70.22
35649;BME280;21768;48.562;13.414;2023-10-19T00:43:50;95998.44;;;10.79;70.20
35649;BME280;21768;48.562;13.414;2023-10-19T00:46:22;95991.00;;;10.82;70.00
35649;BME280;21768;48.562;13.414;2023-10-19T00:49:00;95985.94;;;10.82;70.12
35649;BME280;21768;48.562;13.414;2023-10-19T00:51:31;95986.75;;;10.81;70.11
35649;BME280;21768;48.562;13.414;2023-10-19T00:54:03;95980.84;;;10.80;70.14
35649;BME280;21768;48.562;13.414;2023-10-19T00:56:34;95976.53;;;10.78;70.01
35649;BME280;21768;48.562;13.414;2023-10-19T00:59:04;95978.13;;;10.76;70.05
35649;BME280;21768;48.562;13.414;2023-10-19T01:01:40;95983.09;;;10.74;70.15
35649;BME280;21768;48.562;13.414;2023-10-19T01:04:15;95974.66;;;10.74;70.15
35649;BME280;21768;48.562;13.414;2023-10-19T01:06:46;95974.59;;;10.72;70.02
35649;BME280;21768;48.562;13.414;2023-10-19T01:09:28;95976.38;;;10.75;70.15
35649;BME280;21768;48.562;13.414;2023-10-19T01:11:54;95968.81;;;10.75;70.24
35649;BME280;21768;48.562;13.414;2023-10-19T01:14:20;95970.47;;;10.74;70.20
35649;BME280;21768;48.562;13.414;2023-10-19T01:16:53;95962.97;;;10.76;70.30
35649;BME280;21768;48.562;13.414;2023-10-19T01:19:25;95966.03;;;10.69;70.36
35649;BME280;21768;48.562;13.414;2023-10-19T01:21:52;95961.78;;;10.68;70.32
35649;BME280;21768;48.562;13.414;2023-10-19T01:24:23;95957.81;;;10.73;70.38
35649;BME280;21768;48.562;13.414;2023-10-19T01:27:05;95949.19;;;10.68;70.25
35649;BME280;21768;48.562;13.414;2023-10-19T01:29:34;95941.41;;;10.62;70.55
35649;BME280;21768;48.562;13.414;2023-10-19T01:32:01;95920.28;;;10.60;70.43
35649;BME280;21768;48.562;13.414;2023-10-19T01:34:36;95916.97;;;10.61;70.24
35649;BME280;21768;48.562;13.414;2023-10-19T01:37:02;95910.09;;;10.56;70.36
35649;BME280;21768;48.562;13.414;2023-10-19T01:39:31;95907.31;;;10.50;70.61
35649;BME280;21768;48.562;13.414;2023-10-19T01:41:57;95902.66;;;10.40;70.53
35649;BME280;21768;48.562;13.414;2023-10-19T01:44:23;95897.41;;;10.34;70.84
35649;BME280;21768;48.562;13.414;2023-10-19T01:46:50;95898.00;;;10.29;70.69
35649;BME280;21768;48.562;13.414;2023-10-19T01:49:15;95894.44;;;10.23;70.78
35649;BME280;21768;48.562;13.414;2023-10-19T01:51:51;95902.91;;;10.26;70.77
35649;BME280;21768;48.562;13.414;2023-10-19T01:54:17;95892.09;;;10.28;70.73
35649;BME280;21768;48.562;13.414;2023-10-19T01:56:43;95902.19;;;10.28;70.93
35649;BME280;21768;48.562;13.414;2023-10-19T01:59:09;95909.09;;;10.32;70.62
35649;BME280;21768;48.562;13.414;2023-10-19T02:01:34;95895.69;;;10.33;70.67
35649;BME280;21768;48.562;13.414;2023-10-19T02:04:04;95893.03;;;10.30;70.56
35649;BME280;21768;48.562;13.414;2023-10-19T02:06:32;95891.97;;;10.25;70.87
35649;BME280;21768;48.562;13.414;2023-10-19T02:09:09;95897.50;;;10.18;70.94
35649;BME280;21768;48.562;13.414;2023-10-19T02:11:49;95899.28;;;10.19;70.93
35649;BME280;21768;48.562;13.414;2023-10-19T02:14:16;95891.84;;;10.22;70.88
35649;BME280;21768;48.562;13.414;2023-10-19T02:16:46;95891.53;;;10.16;70.73
35649;BME280;21768;48.562;13.414;2023-10-19T02:19:18;95889.81;;;10.15;70.80
35649;BME280;21768;48.562;13.414;2023-10-19T02:21:47;95879.50;;;10.09;70.97
35649;BME280;21768;48.562;13.414;2023-10-19T02:24:14;95886.88;;;10.04;70.80
35649;BME280;21768;48.562;13.414;2023-10-19T02:26:41;95895.94;;;10.01;70.78
35649;BME280;21768;48.562;13.414;2023-10-19T02:29:07;95905.09;;;9.99;70.65
35649;BME280;21768;48.562;13.414;2023-10-19T02:31:40;95892.38;;;9.96;70.42
35649;BME280;21768;48.562;13.414;2023-10-19T02:34:11;95899.84;;;9.94;70.67
35649;BME280;21768;48.562;13.414;2023-10-19T02:36:38;95884.44;;;9.86;70.81
35649;BME280;21768;48.562;13.414;2023-10-19T02:39:08;95874.91;;;9.79;70.80
35649;BME280;21768;48.562;13.414;2023-10-19T02:41:38;95875.47;;;9.74;71.05
35649;BME280;21768;48.562;13.414;2023-10-19T02:44:08;95867.72;;;9.69;71.22
35649;BME280;21768;48.562;13.414;2023-10-19T02:46:49;95872.63;;;9.66;71.12
35649;BME280;21768;48.562;13.414;2023-10-19T02:49:16;95865.88;;;9.65;71.17
35649;BME280;21768;48.562;13.414;2023-10-19T02:51:46;95864.91;;;9.62;71.26
35649;BME280;21768;48.562;13.414;2023-10-19T02:54:13;95859.78;;;9.60;71.24
35649;BME280;21768;48.562;13.414;2023-10-19T02:56:46;95852.75;;;9.53;71.21
35649;BME280;21768;48.562;13.414;2023-10-19T02:59:15;95854.16;;;9.46;71.40
35649;BME280;21768;48.562;13.414;2023-10-19T03:01:42;95845.41;;;9.38;71.37
35649;BME280;21768;48.562;13.414;2023-10-19T03:04:10;95857.78;;;9.34;71.42
35649;BME280;21768;48.562;13.414;2023-10-19T03:06:38;95857.66;;;9.31;71.55
35649;BME280;21768;48.562;13.414;2023-10-19T03:09:06;95856.06;;;9.33;71.46
35649;BME280;21768;48.562;13.414;2023-10-19T03:11:42;95845.88;;;9.30;71.44
35649;BME280;21768;48.562;13.414;2023-10-19T03:14:10;95848.31;;;9.28;71.35
35649;BME280;21768;48.562;13.414;2023-10-19T03:16:37;95844.13;;;9.29;71.47
35649;BME280;21768;48.562;13.414;2023-10-19T03:19:03;95850.91;;;9.30;71.58
35649;BME280;21768;48.562;13.414;2023-10-19T03:21:30;95847.44;;;9.28;71.34
35649;BME280;21768;48.562;13.414;2023-10-19T03:23:59;95847.44;;;9.28;71.34
35649;BME280;21768;48.562;13.414;2023-10-19T03:26:27;95850.63;;;9.24;71.67
35649;BME280;21768;48.562;13.414;2023-10-19T03:28:58;95842.28;;;9.25;71.73
35649;BME280;21768;48.562;13.414;2023-10-19T03:31:27;95845.59;;;9.24;71.58
35649;BME280;21768;48.562;13.414;2023-10-19T03:33:53;95841.28;;;9.21;71.62
35649;BME280;21768;48.562;13.414;2023-10-19T03:36:25;95835.38;;;9.20;71.46
35649;BME280;21768;48.562;13.414;2023-10-19T03:38:51;95840.41;;;9.20;71.53
35649;BME280;21768;48.562;13.414;2023-10-19T03:41:19;95826.09;;;9.19;71.55
35649;BME280;21768;48.562;13.414;2023-10-19T03:43:54;95831.00;;;9.16;71.81
35649;BME280;21768;48.562;13.414;2023-10-19T03:46:20;95834.34;;;9.15;71.88
35649;BME280;21768;48.562;13.414;2023-10-19T03:48:57;95831.81;;;9.15;71.77
35649;BME280;21768;48.562;13.414;2023-10-19T03:51:29;95833.59;;;9.18;71.75
35649;BME280;21768;48.562;13.414;2023-10-19T03:54:07;95827.84;;;9.20;71.79
35649;BME280;21768;48.562;13.414;2023-10-19T03:56:45;95829.50;;;9.20;71.70
35649;BME280;21768;48.562;13.414;2023-10-19T03:59:11;95818.56;;;9.19;71.70
35649;BME280;21768;48.562;13.414;2023-10-19T04:01:38;95821.16;;;9.21;71.92
35649;BME280;21768;48.562;13.414;2023-10-19T04:04:04;95819.69;;;9.26;71.88
35649;BME280;21768;48.562;13.414;2023-10-19T04:06:30;95820.69;;;9.30;71.92
35649;BME280;21768;48.562;13.414;2023-10-19T04:08:55;95822.56;;;9.34;71.80
35649;BME280;21768;48.562;13.414;2023-10-19T04:11:21;95820.97;;;9.36;71.80
35649;BME280;21768;48.562;13.414;2023-10-19T04:13:58;95809.25;;;9.36;71.77
35649;BME280;21768;48.562;13.414;2023-10-19T04:16:24;95811.63;;;9.33;71.72
35649;BME280;21768;48.562;13.414;2023-10-19T04:18:50;95804.88;;;9.32;71.67
35649;BME280;21768;48.562;13.414;2023-10-19T04:21:15;95810.63;;;9.30;71.64
35649;BME280;21768;48.562;13.414;2023-10-19T04:23:41;95808.91;;;9.29;71.82
35649;BME280;21768;48.562;13.414;2023-10-19T04:26:06;95819.97;;;9.32;71.71
35649;BME280;21768;48.562;13.414;2023-10-19T04:28:40;95810.25;;;9.40;71.67
35649;BME280;21768;48.562;13.414;2023-10-19T04:31:15;95815.38;;;9.43;71.56
35649;BME280;21768;48.562;13.414;2023-10-19T04:33:41;95819.63;;;9.44;71.59
35649;BME280;21768;48.562;13.414;2023-10-19T04:36:15;95827.25;;;9.45;71.58
35649;BME280;21768;48.562;13.414;2023-10-19T04:38:40;95818.78;;;9.43;71.65
35649;BME280;21768;48.562;13.414;2023-10-19T04:41:10;95821.13;;;9.39;71.67
35649;BME280;21768;48.562;13.414;2023-10-19T04:43:37;95813.16;;;9.30;71.52
35649;BME280;21768;48.562;13.414;2023-10-19T04:46:10;95822.16;;;9.25;71.73
35649;BME280;21768;48.562;13.414;2023-10-19T04:48:39;95811.00;;;9.19;71.42
35649;BME280;21768;48.562;13.414;2023-10-19T04:51:08;95816.84;;;9.18;71.74
35649;BME280;21768;48.562;13.414;2023-10-19T04:53:37;95819.34;;;9.18;71.53
35649;BME280;21768;48.562;13.414;2023-10-19T04:56:04;95800.78;;;9.15;71.66
35649;BME280;21768;48.562;13.414;2023-10-19T04:58:30;95811.50;;;9.11;71.68
35649;BME280;21768;48.562;13.414;2023-10-19T05:00:55;95807.31;;;9.11;71.69
35649;BME280;21768;48.562;13.414;2023-10-19T05:03:23;95798.84;;;9.09;71.75
35649;BME280;21768;48.562;13.414;2023-10-19T05:05:49;95800.94;;;9.00;72.30
35649;BME280;21768;48.562;13.414;2023-10-19T05:08:14;95791.59;;;8.98;72.36
35649;BME280;21768;48.562;13.414;2023-10-19T05:10:39;95795.91;;;9.00;72.03
35649;BME280;21768;48.562;13.414;2023-10-19T05:13:06;95785.63;;;8.96;71.96
35649;BME280;21768;48.562;13.414;2023-10-19T05:15:32;95782.81;;;8.88;72.18
35649;BME280;21768;48.562;13.414;2023-10-19T05:17:59;95793.78;;;8.90;72.35
35649;BME280;21768;48.562;13.414;2023-10-19T05:20:24;95792.00;;;8.88;71.86
35649;BME280;21768;48.562;13.414;2023-10-19T05:22:50;95786.03;;;8.85;72.69
35649;BME280;21768;48.562;13.414;2023-10-19T05:25:16;95793.66;;;8.87;72.61
35649;BME280;21768;48.562;13.414;2023-10-19T05:27:41;95799.72;;;8.92;72.64
35649;BME280;21768;48.562;13.414;2023-10-19T05:30:08;95796.78;;;9.01;72.41
35649;BME280;21768;48.562;13.414;2023-10-19T05:32:36;95785.25;;;9.06;72.42
35649;BME280;21768;48.562;13.414;2023-10-19T05:35:01;95781.97;;;9.07;72.31
35649;BME280;21768;48.562;13.414;2023-10-19T05:37:30;95783.75;;;9.09;72.31
35649;BME280;21768;48.562;13.414;2023-10-19T05:39:56;95780.59;;;9.13;72.17
35649;BME280;21768;48.562;13.414;2023-10-19T05:42:21;95787.38;;;9.16;72.21
35649;BME280;21768;48.562;13.414;2023-10-19T05:44:47;95787.78;;;9.25;72.21
35649;BME280;21768;48.562;13.414;2023-10-19T05:47:13;95785.59;;;9.33;71.90
35649;BME280;21768;48.562;13.414;2023-10-19T05:49:38;95782.44;;;9.37;71.80
35649;BME280;21768;48.562;13.414;2023-10-19T05:52:03;95765.63;;;9.36;71.64
35649;BME280;21768;48.562;13.414;2023-10-19T05:54:29;95757.94;;;9.33;71.48
35649;BME280;21768;48.562;13.414;2023-10-19T05:56:55;95759.59;;;9.32;70.93
35649;BME280;21768;48.562;13.414;2023-10-19T05:59:21;95769.66;;;9.32;70.80
35649;BME280;21768;48.562;13.414;2023-10-19T06:01:46;95791.44;;;9.32;70.72
35649;BME280;21768;48.562;13.414;2023-10-19T06:04:12;95790.72;;;9.34;70.47
35649;BME280;21768;48.562;13.414;2023-10-19T06:06:38;95787.72;;;9.43;70.62
35649;BME280;21768;48.562;13.414;2023-10-19T06:09:05;95780.94;;;9.42;70.59
35649;BME280;21768;48.562;13.414;2023-10-19T06:11:33;95760.44;;;9.33;70.78
35649;BME280;21768;48.562;13.414;2023-10-19T06:13:59;95756.28;;;9.33;71.08
35649;BME280;21768;48.562;13.414;2023-10-19T06:16:25;95750.38;;;9.33;71.03
35649;BME280;21768;48.562;13.414;2023-10-19T06:18:51;95750.88;;;9.45;71.09
35649;BME280;21768;48.562;13.414;2023-10-19T06:21:19;95747.97;;;9.55;70.69
35649;BME280;21768;48.562;13.414;2023-10-19T06:23:45;95748.09;;;9.58;70.38
35649;BME280;21768;48.562;13.414;2023-10-19T06:26:11;95745.88;;;9.66;70.18
35649;BME280;21768;48.562;13.414;2023-10-19T06:28:37;95763.97;;;9.76;69.90
35649;BME280;21768;48.562;13.414;2023-10-19T06:31:05;95764.22;;;9.82;69.70
35649;BME280;21768;48.562;13.414;2023-10-19T06:33:30;95768.41;;;9.82;69.19
35649;BME280;21768;48.562;13.414;2023-10-19T06:35:58;95767.53;;;9.81;69.58
35649;BME280;21768;48.562;13.414;2023-10-19T06:38:24;95777.97;;;9.90;69.51
35649;BME280;21768;48.562;13.414;2023-10-19T06:40:51;95784.97;;;9.98;69.54
35649;BME280;21768;48.562;13.414;2023-10-19T06:43:16;95777.75;;;10.05;69.60
35649;BME280;21768;48.562;13.414;2023-10-19T06:45:44;95778.06;;;10.13;69.44
35649;BME280;21768;48.562;13.414;2023-10-19T06:48:10;95779.22;;;10.21;69.27
35649;BME280;21768;48.562;13.414;2023-10-19T06:50:36;95787.03;;;10.27;69.52
35649;BME280;21768;48.562;13.414;2023-10-19T06:53:03;95784.66;;;10.30;69.46
35649;BME280;21768;48.562;13.414;2023-10-19T06:55:30;95786.38;;;10.31;69.29
35649;BME280;21768;48.562;13.414;2023-10-19T06:57:56;95793.38;;;10.38;69.33
35649;BME280;21768;48.562;13.414;2023-10-19T07:00:23;95804.53;;;10.45;69.21
35649;BME280;21768;48.562;13.414;2023-10-19T07:02:53;95798.81;;;10.49;68.74
35649;BME280;21768;48.562;13.414;2023-10-19T07:05:20;95782.28;;;10.55;68.78
35649;BME280;21768;48.562;13.414;2023-10-19T07:07:47;95800.97;;;10.61;68.65
35649;BME280;21768;48.562;13.414;2023-10-19T07:10:14;95781.00;;;10.67;68.51
35649;BME280;21768;48.562;13.414;2023-10-19T07:12:42;95784.00;;;10.79;68.19
35649;BME280;21768;48.562;13.414;2023-10-19T07:15:08;95786.97;;;10.91;67.97
35649;BME280;21768;48.562;13.414;2023-10-19T07:17:37;95786.69;;;11.06;67.79
35649;BME280;21768;48.562;13.414;2023-10-19T07:20:06;95794.56;;;11.13;67.54
35649;BME280;21768;48.562;13.414;2023-10-19T07:22:35;95788.75;;;11.16;67.42
35649;BME280;21768;48.562;13.414;2023-10-19T07:25:05;95777.94;;;11.20;67.32
35649;BME280;21768;48.562;13.414;2023-10-19T07:27:32;95771.69;;;11.33;66.97
35649;BME280;21768;48.562;13.414;2023-10-19T07:29:59;95788.06;;;11.44;66.61
35649;BME280;21768;48.562;13.414;2023-10-19T07:32:24;95792.53;;;11.51;66.58
35649;BME280;21768;48.562;13.414;2023-10-19T07:34:50;95792.66;;;11.54;66.64
35649;BME280;21768;48.562;13.414;2023-10-19T07:37:15;95779.44;;;11.61;66.51
35649;BME280;21768;48.562;13.414;2023-10-19T07:39:47;95783.91;;;11.70;66.32
35649;BME280;21768;48.562;13.414;2023-10-19T07:42:14;95783.34;;;11.77;65.95
35649;BME280;21768;48.562;13.414;2023-10-19T07:44:40;95792.13;;;11.86;65.67
35649;BME280;21768;48.562;13.414;2023-10-19T07:47:05;95783.09;;;11.95;65.43
35649;BME280;21768;48.562;13.414;2023-10-19T07:49:32;95792.56;;;12.00;65.38
35649;BME280;21768;48.562;13.414;2023-10-19T07:51:57;95796.28;;;12.10;65.16
35649;BME280;21768;48.562;13.414;2023-10-19T07:54:24;95779.75;;;12.21;64.91
35649;BME280;21768;48.562;13.414;2023-10-19T07:56:49;95773.19;;;12.26;64.35
35649;BME280;21768;48.562;13.414;2023-10-19T07:59:15;95771.66;;;12.31;64.16
35649;BME280;21768;48.562;13.414;2023-10-19T08:01:41;95775.31;;;12.41;63.83
35649;BME280;21768;48.562;13.414;2023-10-19T08:04:07;95780.69;;;12.50;63.02
35649;BME280;21768;48.562;13.414;2023-10-19T08:06:32;95781.16;;;12.38;63.05
35649;BME280;21768;48.562;13.414;2023-10-19T08:08:58;95778.63;;;12.38;63.16
35649;BME280;21768;48.562;13.414;2023-10-19T08:11:25;95777.03;;;12.42;63.27
35649;BME280;21768;48.562;13.414;2023-10-19T08:13:50;95766.88;;;12.40;62.96
35649;BME280;21768;48.562;13.414;2023-10-19T08:16:15;95767.75;;;12.41;62.44
35649;BME280;21768;48.562;13.414;2023-10-19T08:18:42;95773.50;;;12.35;62.72
35649;BME280;21768;48.562;13.414;2023-10-19T08:21:07;95777.97;;;12.44;62.69
35649;BME280;21768;48.562;13.414;2023-10-19T08:23:33;95778.91;;;12.47;62.73
35649;BME280;21768;48.562;13.414;2023-10-19T08:25:58;95783.22;;;12.50;62.78
35649;BME280;21768;48.562;13.414;2023-10-19T08:28:25;95785.88;;;12.54;62.87
35649;BME280;21768;48.562;13.414;2023-10-19T08:30:51;95774.19;;;12.58;62.72
35649;BME280;21768;48.562;13.414;2023-10-19T08:33:26;95770.25;;;12.68;62.66
35649;BME280;21768;48.562;13.414;2023-10-19T08:35:52;95767.13;;;12.75;62.36
35649;BME280;21768;48.562;13.414;2023-10-19T08:38:19;95758.09;;;12.83;62.26
35649;BME280;21768;48.562;13.414;2023-10-19T08:40:44;95761.69;;;12.91;61.74
35649;BME280;21768;48.562;13.414;2023-10-19T08:43:11;95753.19;;;12.89;61.40
35649;BME280;21768;48.562;13.414;2023-10-19T08:45:38;95758.25;;;12.89;60.90
35649;BME280;21768;48.562;13.414;2023-10-19T08:48:04;95751.56;;;12.91;61.15
35649;BME280;21768;48.562;13.414;2023-10-19T08:50:32;95755.25;;;13.02;61.33
35649;BME280;21768;48.562;13.414;2023-10-19T08:53:00;95764.00;;;13.13;61.07
35649;BME280;21768;48.562;13.414;2023-10-19T08:55:28;95760.88;;;13.20;60.89
35649;BME280;21768;48.562;13.414;2023-10-19T08:57:55;95770.41;;;13.29;60.81
35649;BME280;21768;48.562;13.414;2023-10-19T09:00:23;95773.03;;;13.32;60.69
35649;BME280;21768;48.562;13.414;2023-10-19T09:02:51;95756.94;;;13.30;60.11
35649;BME280;21768;48.562;13.414;2023-10-19T09:05:17;95762.78;;;13.27;60.14
35649;BME280;21768;48.562;13.414;2023-10-19T09:07:52;95767.03;;;13.28;59.84
35649;BME280;21768;48.562;13.414;2023-10-19T09:10:21;95762.28;;;13.41;59.88
35649;BME280;21768;48.562;13.414;2023-10-19T09:15:30;95750.50;;;13.74;59.62
35649;BME280;21768;48.562;13.414;2023-10-19T09:18:17;95761.28;;;13.99;59.49
35649;BME280;21768;48.562;13.414;2023-10-19T09:20:44;95750.78;;;14.19;58.24
35649;BME280;21768;48.562;13.414;2023-10-19T09:23:27;95756.94;;;14.63;57.71
35649;BME280;21768;48.562;13.414;2023-10-19T09:25:56;95747.91;;;15.17;56.94
35649;BME280;21768;48.562;13.414;2023-10-19T09:28:22;95750.09;;;15.84;55.80
35649;BME280;21768;48.562;13.414;2023-10-19T09:30:49;95754.41;;;16.40;54.53
35649;BME280;21768;48.562;13.414;2023-10-19T09:33:16;95751.47;;;16.66;53.96
35649;BME280;21768;48.562;13.414;2023-10-19T09:35:45;95744.91;;;16.84;53.68
35649;BME280;21768;48.562;13.414;2023-10-19T09:38:16;95738.47;;;17.10;53.49
35649;BME280;21768;48.562;13.414;2023-10-19T09:40:47;95739.56;;;17.29;52.75
35649;BME280;21768;48.562;13.414;2023-10-19T09:43:15;95735.34;;;17.32;52.45
35649;BME280;21768;48.562;13.414;2023-10-19T09:45:49;95732.06;;;17.43;51.65
35649;BME280;21768;48.562;13.414;2023-10-19T09:48:19;95730.53;;;17.55;51.69
35649;BME280;21768;48.562;13.414;2023-10-19T09:50:55;95733.91;;;17.57;51.92
35649;BME280;21768;48.562;13.414;2023-10-19T09:53:26;95723.72;;;17.57;51.64
35649;BME280;21768;48.562;13.414;2023-10-19T09:55:54;95735.03;;;17.78;51.15
35649;BME280;21768;48.562;13.414;2023-10-19T09:58:26;95725.16;;;18.14;50.46
35649;BME280;21768;48.562;13.414;2023-10-19T10:00:54;95718.53;;;18.39;49.41
35649;BME280;21768;48.562;13.414;2023-10-19T10:03:45;95722.91;;;18.52;49.95
35649;BME280;21768;48.562;13.414;2023-10-19T10:06:13;95719.72;;;18.84;48.11
35649;BME280;21768;48.562;13.414;2023-10-19T10:08:43;95709.03;;;19.75;46.80
35649;BME280;21768;48.562;13.414;2023-10-19T10:11:17;95702.25;;;20.57;45.50
35649;BME280;21768;48.562;13.414;2023-10-19T10:13:43;95700.41;;;21.20;44.46
35649;BME280;21768;48.562;13.414;2023-10-19T10:16:24;95697.66;;;21.54;43.82
35649;BME280;21768;48.562;13.414;2023-10-19T10:18:51;95691.06;;;20.95;43.92
35649;BME280;21768;48.562;13.414;2023-10-19T10:21:19;95685.16;;;20.36;44.77
35649;BME280;21768;48.562;13.414;2023-10-19T10:24:06;95676.63;;;19.93;44.96
35649;BME280;21768;48.562;13.414;2023-10-19T10:26:58;95663.81;;;19.78;46.53
35649;BME280;21768;48.562;13.414;2023-10-19T10:29:25;95665.53;;;19.88;45.77
35649;BME280;21768;48.562;13.414;2023-10-19T10:31:52;95659.53;;;19.83;45.49
35649;BME280;21768;48.562;13.414;2023-10-19T10:37:06;95650.13;;;19.59;45.83
35649;BME280;21768;48.562;13.414;2023-10-19T10:39:36;95645.81;;;19.42;45.78
35649;BME280;21768;48.562;13.414;2023-10-19T10:42:09;95645.78;;;19.37;45.78
35649;BME280;21768;48.562;13.414;2023-10-19T10:44:45;95628.75;;;19.36;46.09
35649;BME280;21768;48.562;13.414;2023-10-19T10:47:19;95635.63;;;19.55;45.70
35649;BME280;21768;48.562;13.414;2023-10-19T10:49:53;95621.16;;;19.74;45.07
35649;BME280;21768;48.562;13.414;2023-10-19T10:57:33;95605.81;;;19.65;46.04
35649;BME280;21768;48.562;13.414;2023-10-19T11:00:08;95602.38;;;19.63;46.02
35649;BME280;21768;48.562;13.414;2023-10-19T11:03:02;95611.69;;;19.38;45.91
35649;BME280;21768;48.562;13.414;2023-10-19T11:05:30;95606.56;;;19.32;46.52
35649;BME280;21768;48.562;13.414;2023-10-19T11:08:07;95599.75;;;19.25;46.77
35649;BME280;21768;48.562;13.414;2023-10-19T11:10:34;95596.34;;;19.24;46.64
35649;BME280;21768;48.562;13.414;2023-10-19T11:13:01;95589.50;;;19.14;47.02
35649;BME280;21768;48.562;13.414;2023-10-19T11:15:27;95574.13;;;19.02;46.90
35649;BME280;21768;48.562;13.414;2023-10-19T11:17:52;95573.22;;;18.88;47.27
35649;BME280;21768;48.562;13.414;2023-10-19T11:20:22;95569.78;;;18.72;47.12
35649;BME280;21768;48.562;13.414;2023-10-19T11:22:52;95577.25;;;18.42;47.62
35649;BME280;21768;48.562;13.414;2023-10-19T11:25:22;95571.22;;;18.24;48.50
35649;BME280;21768;48.562;13.414;2023-10-19T11:27:48;95583.09;;;18.18;48.74
35649;BME280;21768;48.562;13.414;2023-10-19T11:30:22;95575.31;;;17.96;48.53
35649;BME280;21768;48.562;13.414;2023-10-19T11:32:48;95576.03;;;17.83;48.78
35649;BME280;21768;48.562;13.414;2023-10-19T11:35:13;95572.66;;;17.84;49.22
35649;BME280;21768;48.562;13.414;2023-10-19T11:38:08;95569.25;;;17.79;49.00
35649;BME280;21768;48.562;13.414;2023-10-19T11:40:33;95562.34;;;17.69;49.67
35649;BME280;21768;48.562;13.414;2023-10-19T11:42:59;95553.72;;;17.58;49.41
35649;BME280;21768;48.562;13.414;2023-10-19T11:45:26;95556.22;;;17.50;50.00
35649;BME280;21768;48.562;13.414;2023-10-19T11:47:52;95576.44;;;17.33;50.31
35649;BME280;21768;48.562;13.414;2023-10-19T11:50:17;95575.50;;;17.21;50.25
35649;BME280;21768;48.562;13.414;2023-10-19T11:52:45;95572.91;;;17.18;50.57
35649;BME280;21768;48.562;13.414;2023-10-19T11:57:44;95576.19;;;17.03;50.85
35649;BME280;21768;48.562;13.414;2023-10-19T12:00:10;95581.16;;;16.92;50.97
35649;BME280;21768;48.562;13.414;2023-10-19T12:02:39;95573.53;;;16.94;51.24
35649;BME280;21768;48.562;13.414;2023-10-19T12:05:07;95579.41;;;16.90;51.13
35649;BME280;21768;48.562;13.414;2023-10-19T12:07:36;95580.25;;;16.89;51.63
35649;BME280;21768;48.562;13.414;2023-10-19T12:10:02;95575.19;;;16.92;52.34
35649;BME280;21768;48.562;13.414;2023-10-19T12:12:28;95575.22;;;16.93;52.60
35649;BME280;21768;48.562;13.414;2023-10-19T12:14:54;95577.63;;;16.83;52.48
35649;BME280;21768;48.562;13.414;2023-10-19T12:17:20;95584.22;;;16.65;53.28
35649;BME280;21768;48.562;13.414;2023-10-19T12:19:47;95576.59;;;16.65;53.68
35649;BME280;21768;48.562;13.414;2023-10-19T12:22:13;95580.94;;;16.74;53.66
35649;BME280;21768;48.562;13.414;2023-10-19T12:24:38;95575.88;;;16.77;53.64
35649;BME280;21768;48.562;13.414;2023-10-19T12:27:04;95575.03;;;16.77;53.11
35649;BME280;21768;48.562;13.414;2023-10-19T12:29:29;95576.47;;;16.59;53.28
35649;BME280;21768;48.562;13.414;2023-10-19T12:31:57;95571.34;;;16.53;53.49
35649;BME280;21768;48.562;13.414;2023-10-19T12:34:22;95549.09;;;16.40;53.57
35649;BME280;21768;48.562;13.414;2023-10-19T12:36:48;95542.44;;;16.51;54.28
35649;BME280;21768;48.562;13.414;2023-10-19T12:39:15;95537.88;;;16.97;53.60
35649;BME280;21768;48.562;13.414;2023-10-19T12:41:59;95543.38;;;18.73;51.10
35649;BME280;21768;48.562;13.414;2023-10-19T12:44:24;95535.84;;;19.61;48.51
35649;BME280;21768;48.562;13.414;2023-10-19T12:46:50;95533.84;;;20.81;46.67
35649;BME280;21768;48.562;13.414;2023-10-19T12:49:18;95516.47;;;24.09;42.85
35649;BME280;21768;48.562;13.414;2023-10-19T12:51:44;95501.09;;;27.51;38.03
35649;BME280;21768;48.562;13.414;2023-10-19T12:54:11;95501.34;;;29.40;34.80
35649;BME280;21768;48.562;13.414;2023-10-19T12:56:38;95501.47;;;29.14;32.99
35649;BME280;21768;48.562;13.414;2023-10-19T12:59:04;95504.22;;;26.47;36.85
35649;BME280;21768;48.562;13.414;2023-10-19T13:01:33;95510.53;;;25.69;37.18
35649;BME280;21768;48.562;13.414;2023-10-19T13:04:00;95493.63;;;25.91;37.76
35649;BME280;21768;48.562;13.414;2023-10-19T13:06:31;95498.88;;;28.67;33.10
35649;BME280;21768;48.562;13.414;2023-10-19T13:08:58;95496.13;;;29.40;31.71
35649;BME280;21768;48.562;13.414;2023-10-19T13:11:24;95500.34;;;27.21;34.62
35649;BME280;21768;48.562;13.414;2023-10-19T13:13:49;95499.72;;;25.52;36.21